This is the latest recevied weather packets stored in our database for station/object WA6ODQ-13. If no packets are shown the sender has not sent any weather packets the latest 10 day(s).
| Time | Temp. | Humidity | Pressure | Rain* | Wind** | Luminosity | Snow |
|---|---|---|---|---|---|---|---|
| 1788294140 | 23.89° C | 51% | 1013.5 hPa | 0 mm | - | 544 W/m² | - |
| 1788293835 | 22.78° C | 52% | 1013.7 hPa | 0 mm | - | 746 W/m² | - |
| 1788293534 | 22.22° C | 54% | 1014.1 hPa | 0 mm | - | 254 W/m² | - |
| 1788293228 | 22.22° C | 55% | 1013.9 hPa | 0 mm | - | 604 W/m² | - |
| 1788292923 | 22.22° C | 55% | 1014 hPa | 0 mm | - | 259 W/m² | - |
| 1788292622 | 22.78° C | 53% | 1013.9 hPa | 0 mm | - | 242 W/m² | - |
| 1788292315 | 22.22° C | 55% | 1014 hPa | 0 mm | - | 841 W/m² | - |
| 1788292012 | 21.67° C | 56% | 1014.1 hPa | 0 mm | - | 178 W/m² | - |
| 1788291706 | 22.22° C | 55% | 1013.9 hPa | 0 mm | - | 259 W/m² | - |
| 1788291403 | 21.67° C | 55% | 1014 hPa | 0 mm | - | 782 W/m² | - |
| 1788291096 | 21.67° C | 56% | 1014.1 hPa | 0 mm | - | 251 W/m² | - |
| 1788290792 | 21.67° C | 56% | 1013.9 hPa | 0 mm | - | 306 W/m² | - |
| 1788290487 | 21.67° C | 57% | 1014.1 hPa | 0 mm | - | 472 W/m² | - |
| 1788290183 | 21.11° C | 59% | 1014.4 hPa | 0 mm | - | 218 W/m² | - |
| 1788289879 | 21.67° C | 58% | 1014.1 hPa | 0 mm | - | 177 W/m² | - |
| 1788289575 | 21.67° C | 57% | 1014.3 hPa | 0 mm | - | 251 W/m² | - |
| 1788289274 | 21.67° C | 57% | 1014.1 hPa | 0 mm | - | 246 W/m² | - |
| 1788288972 | 22.22° C | 57% | 1014 hPa | 0 mm | - | 237 W/m² | - |
| 1788288670 | 22.22° C | 56% | 1014.1 hPa | 0 mm | - | 502 W/m² | - |
| 1788288366 | 22.22° C | 56% | 1014.4 hPa | 0 mm | - | 659 W/m² | - |
| 1788288061 | 21.67° C | 57% | 1014.3 hPa | 0 mm | - | 566 W/m² | - |
| 1788287755 | 22.78° C | 55% | 1014.1 hPa | 0 mm | - | 616 W/m² | - |
| 1788287451 | 22.22° C | 55% | 1014.2 hPa | 0 mm | - | 666 W/m² | - |
| 1788287148 | 21.67° C | 56% | 1014.3 hPa | 0 mm | - | 629 W/m² | - |
| 1788286848 | 21.67° C | 56% | 1014.6 hPa | 0 mm | - | 642 W/m² | - |
* Rain latest hour (hover to see other rain measurements)
** Current wind speed in m/s (hover to see current wind gust speed)